Time;durP1;ratioP1;P1;durP2;ratioP2;P2;SDS_P1;SDS_P2;PMS_P1;PMS_P2;Temp;Humidity;BMP_temperature;BMP_pressure;BME280_temperature;BME280_humidity;BME280_pressure;Samples;Min_cycle;Max_cycle;Signal;HPM_P1;HPM_P2
2023/01/27 00:01:19;;;;;;;15.45;2.05;;;;;;;2.95;100.00;102318.41;5036204;28;20040;-92
2023/01/27 00:03:52;;;;;;;13.87;1.90;;;;;;;3.17;100.00;102351.31;5040699;28;20081;-91
2023/01/27 00:06:24;;;;;;;11.98;1.85;;;;;;;3.04;100.00;102335.94;5033863;28;20035;-92
2023/01/27 00:08:52;;;;;;;10.88;1.58;;;;;;;2.99;100.00;102332.97;5032659;28;20121;-91
2023/01/27 00:14:35;;;;;;;13.40;1.90;;;;;;;2.76;100.00;102293.16;5019424;28;20105;-91
2023/01/27 00:26:29;;;;;;;11.25;1.88;;;;;;;2.85;100.00;102351.22;5064952;28;20048;-91
2023/01/27 00:35:06;;;;;;;13.43;1.80;;;;;;;2.80;100.00;102336.84;5049597;22;20118;-92
2023/01/27 00:37:37;;;;;;;18.05;1.90;;;;;;;2.68;100.00;102318.63;5029088;28;20038;-91
2023/01/27 00:40:10;;;;;;;11.10;1.67;;;;;;;2.94;100.00;102354.69;5031186;28;20042;-92
2023/01/27 00:42:44;;;;;;;19.17;2.03;;;;;;;2.67;100.00;102314.34;5029887;28;20045;-92
2023/01/27 00:48:05;;;;;;;12.13;1.92;;;;;;;2.68;100.00;102304.59;5036195;28;20072;-91
2023/01/27 00:50:40;;;;;;;11.57;1.70;;;;;;;2.66;100.00;102307.38;5038046;28;20018;-91
2023/01/27 00:53:05;;;;;;;14.07;2.13;;;;;;;2.78;100.00;102333.53;5038851;28;20025;-91
2023/01/27 00:55:30;;;;;;;15.57;1.80;;;;;;;2.97;100.00;102362.28;5022425;28;20038;-91
2023/01/27 00:58:04;;;;;;;11.47;1.80;;;;;;;2.82;100.00;102350.75;5015112;28;20038;-91
2023/01/27 01:00:30;;;;;;;18.30;2.58;;;;;;;2.68;100.00;102329.22;5014994;28;20037;-91
2023/01/27 01:02:55;;;;;;;15.53;2.20;;;;;;;2.83;100.00;102352.41;5014247;28;20388;-91
2023/01/27 01:05:24;;;;;;;14.37;2.10;;;;;;;2.80;100.00;102347.44;5016048;28;20567;-92
2023/01/27 01:07:52;;;;;;;9.43;2.30;;;;;;;2.71;100.00;102334.19;5014347;28;20029;-91
2023/01/27 01:10:18;;;;;;;14.10;2.10;;;;;;;2.79;100.00;102353.72;5015487;28;20030;-92
2023/01/27 01:12:56;;;;;;;11.23;2.17;;;;;;;2.72;100.00;102345.63;4999064;28;20030;-91
2023/01/27 01:24:20;;;;;;;15.63;2.65;;;;;;;2.81;100.00;102373.72;5618058;22;20048;-91
2023/01/27 01:26:46;;;;;;;11.17;2.50;;;;;;;2.73;100.00;102356.03;5058111;28;20014;-91
2023/01/27 01:29:11;;;;;;;12.35;2.72;;;;;;;2.72;100.00;102362.31;5146845;22;20060;-92
2023/01/27 01:32:16;;;;;;;14.63;3.10;;;;;;;2.84;100.00;102383.97;5044463;28;20021;-91
2023/01/27 01:34:47;;;;;;;5.53;2.00;;;;;;;2.64;100.00;102357.06;5033238;28;20578;-91
2023/01/27 01:37:16;;;;;;;11.30;2.60;;;;;;;2.61;100.00;102351.25;5046454;28;20040;-91
2023/01/27 01:39:41;;;;;;;13.77;3.20;;;;;;;2.53;100.00;102352.06;5052778;28;20578;-92
2023/01/27 01:42:16;;;;;;;10.07;3.33;;;;;;;2.62;100.00;102364.31;5053941;28;20340;-92
2023/01/27 01:45:22;;;;;;;13.32;2.60;;;;;;;2.68;100.00;102373.41;5048980;28;20049;-92
2023/01/27 01:47:51;;;;;;;14.20;3.00;;;;;;;2.48;100.00;102343.81;5032474;28;20416;-92
2023/01/27 01:50:16;;;;;;;16.03;3.00;;;;;;;2.47;100.00;102350.94;5074602;22;20303;-91
2023/01/27 01:52:54;;;;;;;8.52;2.30;;;;;;;2.66;100.00;102378.84;5038127;28;20079;-93
2023/01/27 01:55:33;;;;;;;10.27;2.92;;;;;;;2.63;100.00;102373.09;5033702;28;20033;-93
2023/01/27 01:58:10;;;;;;;16.17;3.30;;;;;;;2.62;100.00;102377.56;5032401;28;20033;-93
2023/01/27 02:00:42;;;;;;;7.13;2.77;;;;;;;2.61;100.00;102369.78;5014553;28;20323;-91
2023/01/27 02:03:14;;;;;;;10.68;2.85;;;;;;;2.60;100.00;102373.41;5000497;28;20056;-91
2023/01/27 02:05:57;;;;;;;10.82;2.80;;;;;;;2.53;100.00;102366.16;5016457;28;20033;-91
2023/01/27 02:08:47;;;;;;;13.65;2.58;;;;;;;2.37;100.00;102342.34;5031143;28;20033;-91
2023/01/27 02:11:12;;;;;;;13.68;3.15;;;;;;;2.55;100.00;102372.09;5033749;28;20038;-93
2023/01/27 02:13:38;;;;;;;9.43;2.30;;;;;;;2.57;100.00;102371.94;5033797;28;20350;-92
2023/01/27 02:16:05;;;;;;;10.15;2.67;;;;;;;2.48;100.00;102364.97;5031974;28;20040;-92
2023/01/27 02:18:40;;;;;;;10.40;3.22;;;;;;;2.54;100.00;102381.03;5032169;28;20108;-93
2023/01/27 02:21:06;;;;;;;10.03;2.73;;;;;;;2.55;100.00;102380.06;5030215;28;20029;-92
2023/01/27 02:23:52;;;;;;;9.82;2.80;;;;;;;2.63;100.00;102391.59;5033329;28;20399;-92
2023/01/27 02:26:21;;;;;;;9.90;3.10;;;;;;;2.53;100.00;102376.75;5033344;28;20032;-91
2023/01/27 02:28:55;;;;;;;16.05;3.00;;;;;;;2.53;100.00;102376.75;5013078;28;20028;-92
2023/01/27 02:31:21;;;;;;;11.00;2.97;;;;;;;2.55;100.00;102401.22;5035609;28;20032;-93
2023/01/27 02:33:47;;;;;;;14.23;3.17;;;;;;;2.55;100.00;102403.88;5016651;28;20089;-93
2023/01/27 02:36:17;;;;;;;9.20;2.97;;;;;;;2.58;100.00;102411.44;5036259;28;20036;-92
2023/01/27 02:38:48;;;;;;;10.73;2.70;;;;;;;2.52;100.00;102403.34;5016836;28;20287;-92
2023/01/27 02:41:44;;;;;;;13.35;3.35;;;;;;;2.50;100.00;102395.59;5030969;28;20429;-91
2023/01/27 02:44:11;;;;;;;12.02;3.00;;;;;;;2.52;100.00;102401.53;5020772;28;20033;-92
2023/01/27 02:46:36;;;;;;;14.85;3.60;;;;;;;2.57;100.00;102414.28;5038015;28;20532;-92
2023/01/27 02:49:02;;;;;;;12.07;3.03;;;;;;;2.55;100.00;102411.81;5032630;28;20018;-92
2023/01/27 02:51:28;;;;;;;7.32;2.72;;;;;;;2.52;100.00;102403.34;5022148;28;20040;-92
2023/01/27 02:53:53;;;;;;;11.02;3.03;;;;;;;2.56;100.00;102416.09;5018311;28;20483;-93
2023/01/27 02:56:20;;;;;;;11.37;3.37;;;;;;;2.51;100.00;102402.53;5014113;28;20496;-92
2023/01/27 02:58:45;;;;;;;11.82;3.42;;;;;;;2.54;100.00;102415.44;5032249;28;20025;-92
2023/01/27 03:01:11;;;;;;;10.67;3.20;;;;;;;2.51;100.00;102402.53;5033842;28;20043;-91
2023/01/27 03:03:42;;;;;;;11.57;3.80;;;;;;;2.49;100.00;102395.72;5033834;28;20503;-91
2023/01/27 03:06:09;;;;;;;9.68;3.67;;;;;;;2.51;100.00;102407.00;5034755;28;20021;-91
2023/01/27 03:08:34;;;;;;;12.05;3.50;;;;;;;2.50;100.00;102411.47;5033077;28;20044;-91
2023/01/27 03:10:59;;;;;;;13.57;3.70;;;;;;;2.54;100.00;102412.81;5031796;28;20105;-91
2023/01/27 03:13:26;;;;;;;10.37;3.77;;;;;;;2.52;100.00;102414.78;5023278;28;20033;-92
2023/01/27 03:18:36;;;;;;;9.07;3.90;;;;;;;2.58;100.00;102419.38;5049494;28;20045;-92
2023/01/27 03:21:04;;;;;;;11.52;4.03;;;;;;;2.55;100.00;102416.25;5033450;28;20029;-92
2023/01/27 03:23:34;;;;;;;12.73;4.22;;;;;;;2.51;100.00;102407.81;5015255;28;20095;-92
2023/01/27 03:26:01;;;;;;;14.03;4.40;;;;;;;2.46;100.00;102410.13;5031156;28;20025;-92
2023/01/27 03:28:26;;;;;;;13.95;4.38;;;;;;;2.52;100.00;102432.47;5032556;28;20117;-92
2023/01/27 03:30:59;;;;;;;12.27;4.00;;;;;;;2.53;100.00;102418.25;5032007;28;20049;-92
2023/01/27 03:33:24;;;;;;;11.23;4.45;;;;;;;2.48;100.00;102416.09;5031963;28;20025;-92
2023/01/27 03:46:45;;;;;;;12.73;5.18;;;;;;;2.49;100.00;102433.63;5032212;28;20041;-92
2023/01/27 03:49:11;;;;;;;14.20;5.70;;;;;;;2.42;100.00;102433.47;5028675;28;20042;-92
2023/01/27 03:51:36;;;;;;;12.97;5.27;;;;;;;2.45;100.00;102420.91;5015083;28;20056;-92
2023/01/27 03:54:01;;;;;;;15.50;4.77;;;;;;;2.55;100.00;102448.88;5032327;28;20030;-92
2023/01/27 03:56:27;;;;;;;16.63;5.73;;;;;;;2.45;100.00;102432.28;5032640;28;20037;-92
2023/01/27 03:58:52;;;;;;;18.30;6.47;;;;;;;2.45;100.00;102429.66;5030595;28;20392;-93
2023/01/27 04:01:21;;;;;;;19.27;5.83;;;;;;;2.47;100.00;102440.91;5035263;28;20029;-92
2023/01/27 04:10:05;;;;;;;20.23;6.88;;;;;;;2.49;100.00;102446.84;5080146;22;20608;-89
2023/01/27 04:12:29;;;;;;;14.63;6.43;;;;;;;2.19;100.00;102401.50;5033108;28;20429;-89
2023/01/27 04:15:37;;;;;;;23.60;7.20;;;;;;;2.20;100.00;102397.03;5019536;28;20497;-89
2023/01/27 04:18:08;;;;;;;23.77;7.70;;;;;;;2.25;100.00;102408.78;5025596;28;20314;-91
2023/01/27 04:23:05;;;;;;;17.85;7.75;;;;;;;2.38;100.00;102428.63;5032968;22;20448;-90
2023/01/27 04:25:43;;;;;;;18.83;6.75;;;;;;;2.37;100.00;102425.19;5017332;28;20079;-88
2023/01/27 04:28:09;;;;;;;18.92;7.88;;;;;;;2.13;100.00;102391.59;5016312;28;20021;-90
2023/01/27 04:30:38;;;;;;;16.47;6.43;;;;;;;2.21;100.00;102404.81;5033363;28;20044;-90
2023/01/27 04:33:09;;;;;;;18.45;7.78;;;;;;;2.24;100.00;102409.78;5032752;28;20396;-88
2023/01/27 04:35:34;;;;;;;16.40;7.38;;;;;;;2.42;100.00;102440.56;5024480;28;20037;-90
2023/01/27 04:38:01;;;;;;;16.80;7.33;;;;;;;2.40;100.00;102442.53;5054549;28;20005;-90
2023/01/27 04:40:32;;;;;;;15.48;6.47;;;;;;;2.43;100.00;102439.56;5040037;28;20032;-90
2023/01/27 04:43:01;;;;;;;16.60;7.67;;;;;;;2.21;100.00;102409.28;5035137;28;20044;-90
2023/01/27 04:51:24;;;;;;;15.15;6.93;;;;;;;2.33;100.00;102433.59;5040163;23;20047;-88
2023/01/27 04:53:51;;;;;;;18.38;7.75;;;;;;;2.38;100.00;102453.28;5034503;28;20041;-89
2023/01/27 04:56:39;;;;;;;17.25;7.25;;;;;;;2.22;100.00;102432.91;5015291;28;20488;-89
2023/01/27 05:02:05;;;;;;;17.73;7.33;;;;;;;2.19;100.00;102443.00;5008549;28;20299;-89
2023/01/27 05:04:31;;;;;;;13.77;6.70;;;;;;;2.28;100.00;102457.91;5029534;28;20021;-89
2023/01/27 05:06:56;;;;;;;15.23;6.88;;;;;;;2.04;100.00;102425.13;5014592;28;20561;-89
2023/01/27 05:09:23;;;;;;;15.07;6.70;;;;;;;2.28;100.00;102465.84;5018394;28;20018;-95
2023/01/27 05:11:48;;;;;;;11.63;6.90;;;;;;;2.36;100.00;102478.28;5034971;28;20108;-92
2023/01/27 05:14:13;;;;;;;14.07;7.47;;;;;;;2.34;100.00;102481.06;5032071;28;20057;-94
2023/01/27 05:16:39;;;;;;;12.67;6.90;;;;;;;2.32;100.00;102469.81;5032852;28;20025;-93
2023/01/27 05:19:07;;;;;;;14.97;7.23;;;;;;;2.36;100.00;102481.72;5034846;28;20608;-92
2023/01/27 05:21:33;;;;;;;15.00;7.38;;;;;;;2.27;100.00;102461.56;5026270;28;20112;-94
2023/01/27 05:23:58;;;;;;;13.57;6.97;;;;;;;2.37;100.00;102491.31;5030111;28;20109;-93
2023/01/27 05:26:26;;;;;;;14.35;7.20;;;;;;;2.29;100.00;102483.34;5035223;28;20032;-93
2023/01/27 05:28:52;;;;;;;16.50;7.27;;;;;;;2.25;100.00;102485.50;5030016;28;20018;-94
2023/01/27 05:31:21;;;;;;;14.07;6.95;;;;;;;2.32;100.00;102495.44;5035257;28;20330;-93
2023/01/27 05:33:48;;;;;;;14.93;6.95;;;;;;;2.39;100.00;102493.78;5025469;28;20079;-91
2023/01/27 05:36:16;;;;;;;15.60;7.38;;;;;;;2.34;100.00;102493.47;5041583;28;20100;-93
2023/01/27 05:38:42;;;;;;;15.25;7.78;;;;;;;2.34;100.00;102498.75;5051325;28;20029;-94
2023/01/27 05:41:09;;;;;;;13.67;7.07;;;;;;;2.35;100.00;102503.88;5263049;22;20043;-91
2023/01/27 05:43:38;;;;;;;14.10;7.75;;;;;;;2.22;100.00;102475.22;5037671;28;20033;-92
2023/01/27 05:46:10;;;;;;;13.60;6.70;;;;;;;2.23;100.00;102484.84;5038054;28;20373;-91
2023/01/27 05:48:40;;;;;;;15.52;7.30;;;;;;;2.37;100.00;102509.03;5039278;28;20026;-93
2023/01/27 05:51:06;;;;;;;14.97;7.00;;;;;;;2.35;100.00;102509.16;5043461;28;20021;-96
2023/01/27 05:53:32;;;;;;;16.13;7.27;;;;;;;2.31;100.00;102499.09;5030919;28;20747;-96
2023/01/27 05:55:58;;;;;;;13.32;6.85;;;;;;;2.32;100.00;102503.38;5018974;28;20088;-95
2023/01/27 05:58:30;;;;;;;14.48;7.35;;;;;;;2.02;100.00;102469.41;5037202;22;20018;-96
2023/01/27 06:01:07;;;;;;;14.80;7.23;;;;;;;2.03;100.00;102476.34;5034154;28;20092;-96
2023/01/27 06:03:33;;;;;;;14.98;7.57;;;;;;;2.05;100.00;102473.53;5039073;28;20101;-95
2023/01/27 06:05:58;;;;;;;12.88;7.07;;;;;;;2.15;100.00;102498.03;5054102;28;20029;-92
2023/01/27 06:08:27;;;;;;;13.67;7.40;;;;;;;2.38;100.00;102511.50;5048244;28;20045;-96
2023/01/27 06:10:53;;;;;;;12.90;6.68;;;;;;;2.22;100.00;102501.69;5036946;28;20026;-93
2023/01/27 06:13:21;;;;;;;14.47;7.10;;;;;;;2.29;100.00;102520.38;5056245;28;20171;-94
2023/01/27 06:15:47;;;;;;;14.98;7.93;;;;;;;2.05;100.00;102476.19;5048036;28;20022;-95
2023/01/27 06:18:14;;;;;;;16.15;7.50;;;;;;;2.27;100.00;102509.97;5028533;28;20038;-96
2023/01/27 06:20:40;;;;;;;16.05;7.60;;;;;;;2.14;100.00;102485.81;5048426;28;20022;-95
2023/01/27 06:23:08;;;;;;;20.75;8.65;;;;;;;2.14;100.00;102493.75;5030929;28;20083;-95
2023/01/27 06:25:36;;;;;;;12.80;7.30;;;;;;;2.12;100.00;102485.13;5035857;28;20424;-94
2023/01/27 06:28:03;;;;;;;13.45;7.40;;;;;;;2.23;100.00;102508.63;5015579;28;20040;-94
2023/01/27 06:30:29;;;;;;;13.65;7.13;;;;;;;2.31;100.00;102520.25;5016148;28;20026;-93
2023/01/27 06:33:07;;;;;;;14.10;7.45;;;;;;;2.13;100.00;102497.38;5043021;28;20030;-95
2023/01/27 06:35:34;;;;;;;14.80;8.20;;;;;;;2.12;100.00;102496.53;5028637;28;20128;-95
2023/01/27 06:38:01;;;;;;;14.48;7.85;;;;;;;2.35;100.00;102538.28;5042634;28;20030;-95
2023/01/27 06:40:32;;;;;;;14.17;7.47;;;;;;;2.37;100.00;102535.50;5047411;28;20017;-95
2023/01/27 06:43:31;;;;;;;;;;;;;;;;;;;;;
2023/01/27 06:45:57;;;;;;;13.52;7.07;;;;;;;2.09;100.00;102486.28;5032707;28;20101;-96
2023/01/27 06:48:45;;;;;;;12.68;7.13;;;;;;;2.12;100.00;102482.50;5043266;28;20072;-93
2023/01/27 06:51:28;;;;;;;11.77;6.13;;;;;;;2.20;100.00;102500.19;5007761;28;20092;-95
2023/01/27 06:53:53;;;;;;;12.30;6.57;;;;;;;2.41;100.00;102531.50;5046243;28;20029;-96
2023/01/27 06:56:27;;;;;;;10.65;6.70;;;;;;;2.10;100.00;102479.19;5036815;28;20088;-96
2023/01/27 06:58:56;;;;;;;10.13;6.93;;;;;;;2.16;100.00;102485.63;5037285;28;20032;-93
2023/01/27 07:01:30;;;;;;;11.70;6.87;;;;;;;2.22;100.00;102504.34;5039100;28;20330;-96
2023/01/27 07:03:59;;;;;;;10.95;6.38;;;;;;;2.42;100.00;102535.81;5050512;28;20033;-96
2023/01/27 07:06:36;;;;;;;11.35;7.03;;;;;;;2.42;100.00;102538.47;5047821;28;20033;-96
2023/01/27 07:11:31;;;;;;;14.00;6.32;;;;;;;2.22;100.00;102512.28;5034339;28;20053;-95
2023/01/27 07:13:57;;;;;;;13.23;6.57;;;;;;;2.43;100.00;102542.75;5053974;28;20076;-96
2023/01/27 07:16:24;;;;;;;9.60;6.00;;;;;;;2.13;100.00;102494.72;5025027;28;20029;-96
2023/01/27 07:18:50;;;;;;;11.90;6.07;;;;;;;2.47;100.00;102548.56;5024511;28;20036;-96
2023/01/27 07:21:15;;;;;;;8.53;5.60;;;;;;;2.48;100.00;102543.13;5020576;28;20010;-95
2023/01/27 07:23:41;;;;;;;9.37;5.47;;;;;;;2.25;100.00;102513.78;5022651;28;20056;-96
2023/01/27 07:26:06;;;;;;;8.70;4.87;;;;;;;2.48;100.00;102548.41;5026748;28;20768;-96
2023/01/27 07:28:31;;;;;;;8.37;5.30;;;;;;;2.51;100.00;102548.09;5033479;28;20069;-96
2023/01/27 07:31:13;;;;;;;9.50;5.03;;;;;;;2.33;100.00;102516.44;5035666;28;20025;-96
2023/01/27 07:33:38;;;;;;;9.05;5.15;;;;;;;2.38;100.00;102526.53;5027962;28;20030;-96
2023/01/27 07:36:05;;;;;;;7.77;5.23;;;;;;;2.23;100.00;102502.53;5036391;28;20034;-96
2023/01/27 07:38:32;;;;;;;6.47;4.63;;;;;;;2.49;100.00;102544.78;5004779;28;20045;-96
2023/01/27 07:40:57;;;;;;;7.90;4.82;;;;;;;2.26;100.00;102510.97;5034047;28;20002;-96
2023/01/27 07:47:19;;;;;;;6.55;4.13;;;;;;;2.58;100.00;102564.16;5028522;28;20056;-96
2023/01/27 07:49:45;;;;;;;8.73;4.22;;;;;;;2.61;100.00;102560.34;5027935;28;20037;-96
2023/01/27 07:52:12;;;;;;;7.72;4.07;;;;;;;2.45;100.00;102538.13;5026408;28;20052;-96
2023/01/27 07:54:38;;;;;;;7.13;4.55;;;;;;;2.42;100.00;102536.66;5026907;28;20029;-96
2023/01/27 08:19:00;;;;;;;7.65;4.60;;;;;;;2.80;100.00;102581.22;5057571;28;20059;-96
2023/01/27 08:21:31;;;;;;;5.22;3.83;;;;;;;2.58;100.00;102550.91;5057614;28;20023;-96
2023/01/27 08:23:57;;;;;;;6.85;3.90;;;;;;;2.60;100.00;102561.31;5056443;28;20041;-96
2023/01/27 08:26:23;;;;;;;7.10;4.60;;;;;;;2.82;100.00;102589.03;5057038;28;20918;-96
2023/01/27 08:28:52;;;;;;;5.68;4.15;;;;;;;2.52;100.00;102538.31;5053638;28;20005;-95
2023/01/27 08:31:19;;;;;;;7.00;4.05;;;;;;;2.91;100.00;102595.16;5519462;22;20037;-96
2023/01/27 08:33:59;;;;;;;7.30;4.27;;;;;;;2.74;100.00;102579.22;5003945;28;20113;-96
2023/01/27 09:44:18;;;;;;;4.63;3.25;;;;;;;3.50;100.00;102616.25;5057179;28;20052;-96
2023/01/27 10:03:16;;;;;;;5.03;3.10;;;;;;;3.86;100.00;102662.75;5143123;22;20136;-96
2023/01/27 10:06:23;;;;;;;5.20;3.05;;;;;;;3.84;100.00;102665.59;5097141;28;20041;-95
2023/01/27 10:19:18;;;;;;;3.70;3.15;;;;;;;4.01;100.00;102661.09;5566610;22;19946;-95
2023/01/27 10:22:20;;;;;;;3.92;3.35;;;;;;;3.76;100.00;102625.81;5061362;28;20033;-95
2023/01/27 10:25:38;;;;;;;4.60;3.30;;;;;;;3.97;100.00;102648.31;5049892;28;20037;-94
2023/01/27 10:28:12;;;;;;;3.93;2.53;;;;;;;3.87;100.00;102637.91;5055853;28;20407;-96
2023/01/27 10:31:45;;;;;;;5.55;3.03;;;;;;;4.06;100.00;102650.78;5040985;28;20033;-96
2023/01/27 10:33:51;;;;;;;3.85;2.80;;;;;;;4.08;100.00;102656.75;5041263;28;20021;-94
2023/01/27 10:36:28;;;;;;;3.72;3.10;;;;;;;4.11;100.00;102657.44;5057704;28;20021;-95
2023/01/27 10:39:12;;;;;;;5.88;3.42;;;;;;;4.14;100.00;102649.94;5033462;28;20040;-96
2023/01/27 10:44:50;;;;;;;3.83;3.20;;;;;;;4.24;100.00;102642.63;5141559;22;20340;-96
2023/01/27 10:47:25;;;;;;;5.20;3.42;;;;;;;4.29;100.00;102649.25;5029027;28;20042;-95
2023/01/27 10:53:56;;;;;;;;;;;;;;;;;;;;;
2023/01/27 10:57:08;;;;;;;3.10;2.70;;;;;;;4.28;100.00;102655.56;5075204;28;20065;-95
2023/01/27 11:03:41;;;;;;;3.87;2.83;;;;;;;4.06;100.00;102648.13;5019555;28;20270;-94
2023/01/27 11:19:26;;;;;;;4.10;2.73;;;;;;;3.91;100.00;102644.53;6133614;22;20027;-92
2023/01/27 11:21:54;;;;;;;4.03;2.97;;;;;;;3.91;100.00;102639.22;5037294;28;20288;-95
2023/01/27 11:24:29;;;;;;;4.30;3.05;;;;;;;3.91;100.00;102618.84;5056210;28;20032;-96
2023/01/27 11:36:49;;;;;;;3.10;2.80;;;;;;;4.26;100.00;102599.19;5067719;28;20056;-96
2023/01/27 11:39:16;;;;;;;4.70;3.27;;;;;;;4.45;100.00;102629.78;5066665;28;20044;-96
2023/01/27 11:41:47;;;;;;;3.30;2.50;;;;;;;4.54;100.00;102629.56;5067402;28;20021;-96
2023/01/27 11:44:26;;;;;;;3.60;3.20;;;;;;;4.52;100.00;102610.34;5066509;28;20554;-96
2023/01/27 11:46:54;;;;;;;4.18;3.47;;;;;;;4.57;100.00;102628.38;5047439;28;20092;-96
2023/01/27 11:50:12;;;;;;;5.13;3.47;;;;;;;4.63;100.00;102625.06;5047044;28;20029;-96
2023/01/27 11:53:51;;;;;;;4.93;3.30;;;;;;;4.34;100.00;102573.44;5173469;22;20532;-96
2023/01/27 11:56:28;;;;;;;4.70;3.20;;;;;;;4.44;100.00;102586.50;5054368;28;20076;-96
2023/01/27 11:59:06;;;;;;;5.07;3.60;;;;;;;4.51;100.00;102589.28;5072695;28;20319;-96
2023/01/27 12:02:14;;;;;;;4.03;3.25;;;;;;;4.79;100.00;102624.16;5066523;28;20017;-96
2023/01/27 12:12:26;;;;;;;3.70;2.90;;;;;;;4.65;100.00;102599.16;5217589;22;20103;-94
2023/01/27 12:15:24;;;;;;;4.07;3.30;;;;;;;4.50;100.00;102569.84;5062044;28;20104;-96
2023/01/27 12:18:02;;;;;;;4.90;3.10;;;;;;;4.60;99.54;102593.53;5062692;28;20291;-95
2023/01/27 12:21:01;;;;;;;3.75;3.35;;;;;;;4.74;100.00;102617.72;5051454;28;20041;-96
2023/01/27 12:24:22;;;;;;;3.50;3.20;;;;;;;4.72;99.67;102606.44;5050730;28;20067;-95
2023/01/27 12:40:08;;;;;;;3.50;3.03;;;;;;;4.66;99.95;102595.50;5620212;22;20163;-95
2023/01/27 12:48:49;;;;;;;3.10;2.80;;;;;;;4.50;97.35;102553.91;5057101;22;20040;-95
2023/01/27 12:51:39;;;;;;;3.13;2.60;;;;;;;4.44;97.12;102545.84;5049867;28;20029;-96
2023/01/27 12:54:22;;;;;;;3.77;2.73;;;;;;;4.72;97.88;102590.50;5062183;28;20283;-96
2023/01/27 12:56:50;;;;;;;4.97;2.92;;;;;;;4.73;97.12;102581.53;5042665;28;20032;-95
2023/01/27 12:59:18;;;;;;;3.53;2.85;;;;;;;4.41;97.91;102533.75;5051722;22;20860;-95
2023/01/27 13:01:59;;;;;;;3.78;3.28;;;;;;;4.64;97.70;102565.63;5041537;28;20481;-96
2023/01/27 13:04:49;;;;;;;3.63;2.53;;;;;;;4.54;97.05;102551.75;5694261;22;20086;-96
2023/01/27 13:07:40;;;;;;;3.53;3.20;;;;;;;4.42;97.50;102540.72;5072589;28;20468;-96
2023/01/27 13:10:17;;;;;;;3.33;2.87;;;;;;;4.43;97.45;102533.56;5314584;22;20012;-96
2023/01/27 13:13:03;;;;;;;3.90;3.50;;;;;;;4.48;98.94;102540.00;5020043;28;20030;-95
2023/01/27 13:18:12;;;;;;;4.00;3.38;;;;;;;5.07;98.74;102591.75;5297577;23;20052;-96
2023/01/27 13:20:47;;;;;;;5.18;3.05;;;;;;;4.83;96.01;102559.06;5250796;22;20063;-95
2023/01/27 13:23:27;;;;;;;4.55;3.45;;;;;;;4.85;97.13;102565.00;5086144;28;20050;-94
2023/01/27 13:26:39;;;;;;;4.03;3.40;;;;;;;4.98;97.36;102580.34;5070906;28;20044;-95
2023/01/27 13:29:20;;;;;;;3.55;3.17;;;;;;;4.62;96.67;102532.28;5063437;28;20484;-91
2023/01/27 13:35:34;;;;;;;5.13;2.92;;;;;;;4.88;98.94;102587.75;5103318;22;20059;-87
2023/01/27 13:38:21;;;;;;;4.35;3.25;;;;;;;4.95;97.85;102593.97;5056576;28;20029;-91
2023/01/27 13:40:48;;;;;;;3.95;3.55;;;;;;;4.91;97.18;102582.06;5055626;28;20063;-92
2023/01/27 13:43:40;;;;;;;3.80;3.20;;;;;;;4.90;96.35;102585.72;5349900;22;20057;-93
2023/01/27 13:46:18;;;;;;;4.63;3.15;;;;;;;4.78;96.08;102590.63;5058021;28;20029;-91
2023/01/27 13:48:49;;;;;;;3.80;3.40;;;;;;;4.37;96.00;102545.69;5054755;28;20218;-90
2023/01/27 13:51:21;;;;;;;2.92;2.65;;;;;;;4.72;97.98;102593.16;5072409;28;20087;-93
2023/01/27 13:53:50;;;;;;;5.10;3.33;;;;;;;4.59;96.13;102583.09;5069730;28;20028;-91
2023/01/27 13:56:18;;;;;;;3.20;2.73;;;;;;;4.57;96.74;102591.22;5065355;28;20072;-90
2023/01/27 13:59:18;;;;;;;3.70;2.90;;;;;;;4.54;97.32;102595.06;5043919;28;20292;-92
2023/01/27 14:02:15;;;;;;;3.40;2.72;;;;;;;4.53;98.50;102596.06;5049974;28;20087;-91
2023/01/27 14:04:58;;;;;;;2.83;2.55;;;;;;;4.50;96.16;102588.44;5054429;28;20025;-91
2023/01/27 14:07:58;;;;;;;3.13;2.85;;;;;;;4.50;97.69;102596.41;5043375;28;20076;-92
2023/01/27 14:10:41;;;;;;;3.50;2.50;;;;;;;4.50;97.53;102592.94;5025589;28;20124;-93
2023/01/27 14:13:31;;;;;;;3.05;2.75;;;;;;;4.43;97.60;102586.66;5034802;28;20028;-93
2023/01/27 14:16:02;;;;;;;4.17;2.77;;;;;;;4.53;98.76;102603.22;5041859;28;20039;-92
2023/01/27 14:18:42;;;;;;;2.60;2.40;;;;;;;4.60;99.51;102595.38;5041834;28;20304;-92
2023/01/27 14:21:39;;;;;;;2.72;2.13;;;;;;;4.65;97.31;102606.31;5051845;28;20392;-92
2023/01/27 14:24:42;;;;;;;4.57;2.60;;;;;;;4.63;98.52;102608.31;5039580;28;20392;-93
2023/01/27 14:27:48;;;;;;;5.22;3.13;;;;;;;4.47;98.96;102596.78;5036882;28;20047;-91
2023/01/27 14:30:21;;;;;;;5.22;2.80;;;;;;;4.63;97.80;102606.47;4982020;28;20419;-92
2023/01/27 14:33:24;;;;;;;3.47;2.88;;;;;;;4.52;97.54;102612.16;5045158;28;20187;-92
2023/01/27 14:36:19;;;;;;;3.47;2.20;;;;;;;4.40;99.30;102601.91;5054060;28;20037;-91
2023/01/27 14:39:16;;;;;;;4.03;2.70;;;;;;;4.43;98.08;102614.03;5052814;28;20032;-91
2023/01/27 14:41:50;;;;;;;3.17;2.60;;;;;;;4.42;97.57;102630.13;5051611;28;20033;-91
2023/01/27 14:44:29;;;;;;;5.75;2.75;;;;;;;4.42;99.34;102619.50;5045063;28;20116;-92
2023/01/27 14:47:22;;;;;;;4.00;2.60;;;;;;;4.45;96.64;102627.13;5035043;28;20041;-92
2023/01/27 14:49:55;;;;;;;2.87;2.30;;;;;;;4.39;96.56;102626.81;5059855;28;20025;-92
2023/01/27 14:52:51;;;;;;;3.20;2.50;;;;;;;4.43;97.50;102619.34;5071595;28;20294;-91
2023/01/27 14:55:51;;;;;;;4.65;3.00;;;;;;;4.34;97.80;102629.16;5055399;28;20044;-92
2023/01/27 14:58:33;;;;;;;2.65;2.03;;;;;;;4.28;98.93;102619.22;5065741;28;20017;-93
2023/01/27 15:01:10;;;;;;;4.40;2.58;;;;;;;4.24;98.65;102624.06;5065083;28;20035;-92
2023/01/27 15:04:04;;;;;;;3.30;2.88;;;;;;;4.16;98.55;102628.56;5039594;28;20094;-92
2023/01/27 15:06:46;;;;;;;4.80;3.07;;;;;;;4.16;99.41;102640.00;5058584;28;20384;-94
2023/01/27 15:09:36;;;;;;;3.43;2.50;;;;;;;4.06;99.46;102629.56;5054743;28;20287;-90
2023/01/27 15:12:26;;;;;;;3.40;2.72;;;;;;;4.05;99.56;102637.72;5056224;28;20052;-93
2023/01/27 15:15:17;;;;;;;3.65;2.88;;;;;;;3.98;98.89;102645.53;5050219;28;20028;-92
2023/01/27 15:18:04;;;;;;;3.72;3.00;;;;;;;3.95;100.00;102643.19;5054693;28;20235;-95
2023/01/27 15:21:08;;;;;;;5.25;3.60;;;;;;;3.96;100.00;102654.63;5034006;28;20090;-92
2023/01/27 15:24:11;;;;;;;3.75;3.03;;;;;;;3.89;100.00;102649.16;5050841;28;20025;-91
2023/01/27 15:26:37;;;;;;;3.43;2.87;;;;;;;3.81;100.00;102651.84;5016551;28;20065;-91
2023/01/27 15:29:11;;;;;;;3.90;3.50;;;;;;;3.83;100.00;102649.84;5039301;28;20056;-92
2023/01/27 15:31:36;;;;;;;4.20;3.17;;;;;;;3.75;99.67;102658.63;5050250;28;20036;-92
2023/01/27 15:34:01;;;;;;;5.37;2.90;;;;;;;3.73;100.00;102668.59;5055324;28;20029;-93
2023/01/27 15:36:33;;;;;;;4.40;2.77;;;;;;;3.67;99.61;102659.47;5053061;28;20039;-92
2023/01/27 15:39:08;;;;;;;3.75;2.85;;;;;;;3.67;100.00;102675.38;5055974;28;20548;-93
2023/01/27 15:41:35;;;;;;;7.00;3.28;;;;;;;3.63;100.00;102672.22;5055123;28;20052;-92
2023/01/27 15:44:15;;;;;;;3.97;3.58;;;;;;;3.55;100.00;102666.09;5059396;28;20021;-92
2023/01/27 15:46:49;;;;;;;4.20;3.53;;;;;;;3.52;99.89;102669.06;5043231;28;20111;-90
2023/01/27 15:49:24;;;;;;;10.83;3.70;;;;;;;3.51;100.00;102670.91;5059159;28;20489;-92
2023/01/27 15:51:54;;;;;;;4.33;3.20;;;;;;;3.52;100.00;102679.69;5039514;28;20288;-92
2023/01/27 15:54:25;;;;;;;4.03;3.30;;;;;;;3.49;100.00;102679.00;5037352;28;20038;-93
2023/01/27 15:56:52;;;;;;;4.75;3.90;;;;;;;3.39;100.00;102675.69;5056409;28;20079;-92
2023/01/27 15:59:23;;;;;;;4.10;3.50;;;;;;;3.40;100.00;102674.72;5058599;28;20029;-91
2023/01/27 16:02:00;;;;;;;25.77;4.10;;;;;;;3.39;100.00;102673.03;5057012;28;20515;-91
2023/01/27 16:04:28;;;;;;;10.98;3.63;;;;;;;3.37;100.00;102677.69;5056926;28;20064;-89
2023/01/27 16:07:00;;;;;;;6.72;4.05;;;;;;;3.26;100.00;102665.56;5037055;28;20024;-89
2023/01/27 16:09:26;;;;;;;4.50;3.60;;;;;;;3.42;100.00;102678.03;5052891;28;20033;-91
2023/01/27 16:12:03;;;;;;;7.90;4.30;;;;;;;3.25;100.00;102676.34;5053794;28;20295;-93